Time;durP1;ratioP1;P1;durP2;ratioP2;P2;SDS_P1;SDS_P2;PMS_P1;PMS_P2;Temp;Humidity;BMP_temperature;BMP_pressure;BME280_temperature;BME280_humidity;BME280_pressure;Samples;Min_cycle;Max_cycle;Signal;HPM_P1;HPM_P2
2023/01/09 00:00:19;;;;;;;2.92;1.35;;;8.60;99.90;;;;;;5029432;28;20132;-82
2023/01/09 00:02:45;;;;;;;7.57;1.35;;;7.40;99.90;;;;;;5011861;28;20068;-82
2023/01/09 00:05:13;;;;;;;3.67;1.00;;;7.50;99.90;;;;;;5029727;28;20055;-82
2023/01/09 00:07:38;;;;;;;1.45;1.02;;;8.00;99.90;;;;;;5011953;28;20134;-83
2023/01/09 00:10:05;;;;;;;4.50;1.08;;;7.50;99.90;;;;;;5012579;28;20085;-83
2023/01/09 00:12:33;;;;;;;7.10;1.40;;;7.60;99.90;;;;;;4995704;28;20049;-82
2023/01/09 00:14:59;;;;;;;4.10;1.08;;;8.80;99.90;;;;;;5028618;28;20103;-81
2023/01/09 00:17:25;;;;;;;3.15;1.10;;;8.70;99.90;;;;;;5008922;28;20061;-82
2023/01/09 00:19:51;;;;;;;4.97;1.17;;;8.70;99.90;;;;;;5008415;28;20171;-82
2023/01/09 00:22:16;;;;;;;4.90;1.08;;;8.20;99.90;;;;;;5009096;28;20132;-84
2023/01/09 00:24:42;;;;;;;3.60;0.93;;;7.70;99.90;;;;;;5008613;28;20042;-83
2023/01/09 00:27:08;;;;;;;4.13;1.05;;;7.70;99.90;;;;;;5008385;28;20515;-83
2023/01/09 00:29:33;;;;;;;2.22;0.60;;;7.70;99.90;;;;;;5026083;28;20053;-83
2023/01/09 00:31:59;;;;;;;2.42;0.68;;;8.60;99.90;;;;;;4992013;28;20041;-83
2023/01/09 00:34:25;;;;;;;3.60;0.70;;;7.90;99.90;;;;;;5025276;28;20072;-83
2023/01/09 00:36:55;;;;;;;1.45;0.50;;;7.50;99.90;;;;;;5024854;28;20043;-83
2023/01/09 00:39:21;;;;;;;2.53;0.30;;;7.50;99.90;;;;;;5025279;28;20482;-83
2023/01/09 00:41:51;;;;;;;1.15;0.63;;;7.50;99.90;;;;;;5024581;28;20120;-82
2023/01/09 00:44:18;;;;;;;1.35;0.30;;;8.10;99.90;;;;;;5025203;28;20076;-83
2023/01/09 00:46:49;;;;;;;0.30;0.30;;;7.40;99.90;;;;;;5024559;28;20084;-82
2023/01/09 00:49:16;;;;;;;2.63;0.88;;;7.60;99.90;;;;;;5026079;28;20110;-82
2023/01/09 00:51:42;;;;;;;1.10;0.20;;;7.40;99.90;;;;;;5025550;28;20119;-82
2023/01/09 00:54:13;;;;;;;0.73;0.28;;;7.40;99.90;;;;;;5025736;28;20033;-82
2023/01/09 00:56:39;;;;;;;0.57;0.20;;;7.30;99.90;;;;;;5026588;28;20065;-82
2023/01/09 00:59:06;;;;;;;0.10;0.03;;;7.30;99.90;;;;;;5024500;28;20461;-82
2023/01/09 01:01:32;;;;;;;1.83;0.20;;;7.30;99.90;;;;;;5024464;28;20057;-81
2023/01/09 01:03:58;;;;;;;2.05;0.20;;;7.30;99.90;;;;;;5007655;28;20049;-81
2023/01/09 01:09:08;;;;;;;1.02;0.22;;;7.20;99.90;;;;;;5024626;28;20258;-82
2023/01/09 01:11:34;;;;;;;1.50;0.25;;;7.30;99.90;;;;;;5023720;28;20053;-83
2023/01/09 01:14:00;;;;;;;0.73;0.38;;;7.10;99.90;;;;;;5007936;28;20367;-83
2023/01/09 01:16:26;;;;;;;0.98;0.30;;;7.10;99.90;;;;;;5007417;28;20034;-83
2023/01/09 01:18:52;;;;;;;1.15;0.35;;;7.10;99.90;;;;;;5043443;28;20562;-83
2023/01/09 01:21:18;;;;;;;1.80;0.20;;;7.00;99.90;;;;;;4994438;28;20061;-83
2023/01/09 01:23:44;;;;;;;0.40;0.20;;;7.00;99.90;;;;;;5027828;28;20053;-84
2023/01/09 01:26:13;;;;;;;0.45;0.25;;;7.00;99.90;;;;;;5011779;28;20466;-83
2023/01/09 01:28:39;;;;;;;3.13;0.22;;;7.00;99.90;;;;;;5026928;28;20100;-84
2023/01/09 01:31:06;;;;;;;0.40;0.20;;;7.00;99.90;;;;;;4994946;28;20077;-83
2023/01/09 01:33:32;;;;;;;7.75;0.50;;;8.00;99.90;;;;;;5026724;28;20041;-83
2023/01/09 01:36:02;;;;;;;3.17;0.20;;;6.90;99.90;;;;;;5010533;28;20544;-83
2023/01/09 01:38:29;;;;;;;0.50;0.20;;;6.50;99.90;;;;;;5011097;28;20072;-83
2023/01/09 01:40:55;;;;;;;1.33;0.30;;;7.40;99.90;;;;;;5026140;28;20106;-83
2023/01/09 01:43:21;;;;;;;0.65;0.20;;;7.00;99.90;;;;;;5011297;28;20467;-83
2023/01/09 01:45:46;;;;;;;3.17;0.40;;;6.80;99.90;;;;;;5010124;28;20131;-83
2023/01/09 01:48:19;;;;;;;0.65;0.25;;;7.20;99.90;;;;;;5010556;28;20123;-83
2023/01/09 01:50:58;;;;;;;3.70;0.60;;;7.40;99.90;;;;;;5009641;28;20052;-83
2023/01/09 01:53:35;;;;;;;1.63;0.35;;;7.50;99.90;;;;;;5026434;28;20222;-83
2023/01/09 01:56:20;;;;;;;0.95;0.40;;;6.90;99.90;;;;;;5011114;28;20071;-83
2023/01/09 01:58:51;;;;;;;3.47;0.70;;;7.00;99.90;;;;;;5026007;28;20048;-84
2023/01/09 02:01:18;;;;;;;4.32;0.57;;;6.90;99.90;;;;;;5009888;28;20809;-83
2023/01/09 02:03:45;;;;;;;4.72;0.63;;;7.00;99.90;;;;;;5010033;28;20071;-83
2023/01/09 02:06:11;;;;;;;3.30;0.77;;;7.00;99.90;;;;;;4993677;28;20484;-84
2023/01/09 02:08:37;;;;;;;3.75;1.00;;;7.00;99.90;;;;;;4993823;28;20493;-82
2023/01/09 02:11:04;;;;;;;5.50;1.00;;;7.00;99.90;;;;;;5009548;28;20099;-81
2023/01/09 02:13:32;;;;;;;3.72;0.75;;;7.00;99.90;;;;;;5011090;28;20400;-81
2023/01/09 02:16:23;;;;;;;3.85;0.70;;;7.80;99.90;;;;;;4992869;28;20543;-81
2023/01/09 02:19:04;;;;;;;3.35;0.98;;;7.00;99.90;;;;;;5025942;28;20049;-81
2023/01/09 02:21:29;;;;;;;2.63;0.90;;;7.00;99.90;;;;;;5026728;28;20053;-82
2023/01/09 02:24:14;;;;;;;6.35;0.90;;;6.90;99.90;;;;;;5009862;28;20059;-82
2023/01/09 02:26:42;;;;;;;5.45;1.10;;;6.90;99.90;;;;;;5026882;28;20045;-82
2023/01/09 02:29:42;;;;;;;4.63;0.93;;;6.90;99.90;;;;;;5025453;28;20510;-83
2023/01/09 02:32:32;;;;;;;2.10;1.00;;;6.90;99.90;;;;;;5026163;28;20175;-82
2023/01/09 02:35:32;;;;;;;5.80;0.93;;;6.90;99.90;;;;;;5027170;28;20586;-82
2023/01/09 02:38:16;;;;;;;3.08;0.88;;;6.90;99.90;;;;;;5008956;28;20037;-82
2023/01/09 02:41:05;;;;;;;4.40;1.40;;;6.80;99.90;;;;;;5009299;28;20087;-83
2023/01/09 02:43:31;;;;;;;1.17;0.70;;;6.80;99.90;;;;;;5026937;28;20044;-82
2023/01/09 02:45:57;;;;;;;4.30;0.93;;;6.80;99.90;;;;;;5008873;28;20076;-82
2023/01/09 02:48:23;;;;;;;2.75;0.85;;;7.30;99.90;;;;;;5026189;28;20092;-83
2023/01/09 02:50:51;;;;;;;12.07;1.25;;;6.80;99.90;;;;;;5009050;28;20140;-83
2023/01/09 02:53:44;;;;;;;3.63;1.15;;;6.80;99.90;;;;;;5043574;28;20127;-82
2023/01/09 02:56:19;;;;;;;3.53;0.73;;;6.70;99.90;;;;;;5026030;28;20059;-82
2023/01/09 02:59:10;;;;;;;7.05;1.20;;;6.70;99.90;;;;;;5024979;28;20060;-83
2023/01/09 03:02:02;;;;;;;3.10;0.75;;;7.60;99.90;;;;;;5009068;28;20052;-83
2023/01/09 03:04:40;;;;;;;6.28;0.80;;;6.70;99.90;;;;;;5025957;28;20140;-83
2023/01/09 03:07:33;;;;;;;6.70;1.73;;;6.70;99.90;;;;;;5025790;28;20045;-83
2023/01/09 03:10:18;;;;;;;5.57;0.90;;;6.60;99.90;;;;;;5008928;28;20053;-83
2023/01/09 03:12:46;;;;;;;4.85;1.13;;;6.60;99.90;;;;;;5009304;28;20607;-83
2023/01/09 03:15:14;;;;;;;2.28;0.80;;;6.60;99.90;;;;;;5008618;28;20318;-83
2023/01/09 03:17:44;;;;;;;6.93;1.27;;;6.50;99.90;;;;;;5026237;28;20439;-82
2023/01/09 03:20:12;;;;;;;8.48;1.33;;;6.50;99.90;;;;;;5008376;28;20045;-83
2023/01/09 03:22:59;;;;;;;6.72;1.08;;;6.50;99.90;;;;;;5009602;28;20416;-83
2023/01/09 03:25:26;;;;;;;4.53;1.30;;;6.50;99.90;;;;;;5008840;28;20048;-83
2023/01/09 03:28:00;;;;;;;4.72;1.27;;;6.40;99.90;;;;;;5024950;28;20118;-83
2023/01/09 03:30:28;;;;;;;3.67;1.10;;;6.40;99.90;;;;;;5013007;28;20052;-83
2023/01/09 03:32:54;;;;;;;5.50;1.02;;;6.40;99.90;;;;;;5028424;28;20327;-83
2023/01/09 03:35:20;;;;;;;2.53;0.80;;;6.90;99.90;;;;;;5029445;28;20055;-82
2023/01/09 03:37:46;;;;;;;3.38;1.10;;;6.30;99.90;;;;;;5028817;28;20049;-83
2023/01/09 03:40:11;;;;;;;7.85;1.27;;;6.30;99.90;;;;;;5013107;28;20041;-82
2023/01/09 03:42:37;;;;;;;8.07;1.33;;;6.30;99.90;;;;;;5028792;28;20128;-82
2023/01/09 03:45:04;;;;;;;7.35;1.17;;;7.20;99.90;;;;;;5028792;28;20132;-83
2023/01/09 03:47:30;;;;;;;7.30;1.33;;;6.30;99.90;;;;;;4997196;28;20054;-83
2023/01/09 03:49:55;;;;;;;6.68;1.20;;;6.30;99.90;;;;;;5028613;28;20041;-82
2023/01/09 03:52:21;;;;;;;6.45;1.38;;;7.20;99.90;;;;;;4980847;28;20047;-83
2023/01/09 03:54:46;;;;;;;7.22;1.77;;;6.20;99.90;;;;;;5028546;28;20055;-83
2023/01/09 03:57:12;;;;;;;8.93;1.50;;;7.30;99.90;;;;;;5012501;28;20041;-83
2023/01/09 03:59:38;;;;;;;2.88;1.10;;;6.10;99.90;;;;;;5012619;28;20049;-83
2023/01/09 04:02:05;;;;;;;3.45;1.42;;;6.10;99.90;;;;;;5012485;28;20055;-83
2023/01/09 04:04:31;;;;;;;6.13;1.30;;;6.00;99.90;;;;;;5012777;28;21040;-83
2023/01/09 04:06:56;;;;;;;4.93;2.08;;;6.30;99.90;;;;;;5012383;28;20041;-83
2023/01/09 04:09:22;;;;;;;4.68;1.40;;;6.60;99.90;;;;;;5029653;28;20436;-82
2023/01/09 04:11:48;;;;;;;4.72;1.50;;;6.60;99.90;;;;;;5011530;28;20073;-81
2023/01/09 04:14:14;;;;;;;6.93;2.13;;;6.00;99.90;;;;;;5012262;28;20040;-83
2023/01/09 04:16:39;;;;;;;6.85;2.13;;;5.90;99.90;;;;;;5012078;28;20057;-84
2023/01/09 04:19:05;;;;;;;7.35;1.92;;;5.90;99.90;;;;;;5046507;28;20049;-83
2023/01/09 04:21:31;;;;;;;8.43;1.92;;;5.90;99.90;;;;;;5028969;28;20094;-82
2023/01/09 04:23:57;;;;;;;8.10;2.00;;;7.10;99.90;;;;;;5012040;28;20052;-82
2023/01/09 04:26:22;;;;;;;6.80;2.30;;;6.10;99.90;;;;;;5028962;28;20392;-83
2023/01/09 04:28:48;;;;;;;4.38;2.17;;;5.80;99.90;;;;;;5011337;28;20127;-83
2023/01/09 04:31:14;;;;;;;10.35;1.85;;;5.80;99.90;;;;;;5028468;28;20048;-82
2023/01/09 04:33:39;;;;;;;11.90;2.72;;;6.40;99.90;;;;;;5028136;28;20099;-83
2023/01/09 04:36:05;;;;;;;7.45;2.75;;;6.90;99.90;;;;;;5028219;28;20095;-82
2023/01/09 04:38:32;;;;;;;6.30;2.80;;;5.70;99.90;;;;;;5046253;28;20052;-82
2023/01/09 04:40:57;;;;;;;11.27;2.70;;;5.70;99.90;;;;;;5011183;28;20048;-82
2023/01/09 04:43:23;;;;;;;6.43;2.58;;;5.60;99.90;;;;;;5028226;28;20040;-82
2023/01/09 04:45:49;;;;;;;6.18;2.58;;;5.90;99.90;;;;;;4994432;28;20175;-82
2023/01/09 04:48:15;;;;;;;8.10;2.50;;;5.70;99.90;;;;;;5027790;28;20132;-82
2023/01/09 04:50:40;;;;;;;12.25;2.63;;;6.90;99.90;;;;;;5027245;28;20060;-82
2023/01/09 04:53:06;;;;;;;6.30;2.53;;;5.70;99.90;;;;;;5045711;28;20138;-82
2023/01/09 04:55:32;;;;;;;6.68;2.53;;;5.70;99.90;;;;;;5027928;28;20501;-81
2023/01/09 04:57:58;;;;;;;8.90;2.55;;;5.60;99.90;;;;;;5027255;28;20474;-82
2023/01/09 05:00:24;;;;;;;5.53;2.58;;;5.40;99.90;;;;;;5011481;28;20048;-82
2023/01/09 05:02:50;;;;;;;9.40;3.42;;;5.60;99.90;;;;;;5010573;28;20052;-82
2023/01/09 05:05:16;;;;;;;10.93;3.35;;;5.50;99.90;;;;;;5028475;28;20053;-83
2023/01/09 05:07:41;;;;;;;12.65;3.00;;;5.50;99.90;;;;;;5011021;28;20073;-82
2023/01/09 05:10:09;;;;;;;5.47;2.83;;;5.60;99.90;;;;;;5045860;28;20468;-82
2023/01/09 05:12:35;;;;;;;8.60;3.50;;;5.60;99.90;;;;;;5011046;28;20052;-81
2023/01/09 05:15:02;;;;;;;11.38;3.53;;;5.60;99.90;;;;;;5026675;28;20087;-80
2023/01/09 05:17:28;;;;;;;9.80;3.53;;;5.60;99.90;;;;;;5027667;28;20061;-81
2023/01/09 05:19:54;;;;;;;7.65;3.55;;;5.50;99.90;;;;;;5027525;28;20045;-82
2023/01/09 05:22:19;;;;;;;8.57;3.17;;;5.50;99.90;;;;;;4994952;28;20488;-83
2023/01/09 05:24:45;;;;;;;11.88;3.95;;;5.90;99.90;;;;;;4993578;28;20135;-82
2023/01/09 05:27:11;;;;;;;7.78;3.80;;;5.50;99.90;;;;;;5010839;28;20041;-83
2023/01/09 05:29:37;;;;;;;13.20;4.88;;;6.10;99.90;;;;;;5010008;28;20472;-82
2023/01/09 05:32:03;;;;;;;13.77;4.45;;;5.50;99.90;;;;;;5009803;28;20053;-83
2023/01/09 05:34:29;;;;;;;12.45;5.90;;;5.50;99.90;;;;;;5027113;28;20095;-83
2023/01/09 05:36:54;;;;;;;17.25;6.00;;;5.40;99.90;;;;;;5026559;28;20083;-84
2023/01/09 05:39:20;;;;;;;10.60;5.55;;;5.40;99.90;;;;;;5027576;28;20056;-83
2023/01/09 05:41:46;;;;;;;10.40;6.85;;;5.50;99.90;;;;;;5025935;28;20045;-84
2023/01/09 05:44:12;;;;;;;9.75;6.43;;;5.50;99.90;;;;;;4993869;28;20086;-84
2023/01/09 05:46:38;;;;;;;11.02;6.68;;;6.30;99.90;;;;;;5010040;28;20076;-84
2023/01/09 05:49:04;;;;;;;15.05;7.68;;;5.60;99.90;;;;;;4993730;28;20059;-83
2023/01/09 05:51:32;;;;;;;13.65;7.00;;;6.80;99.90;;;;;;5010024;28;20060;-86
2023/01/09 05:53:58;;;;;;;13.70;7.45;;;6.70;99.90;;;;;;5010143;28;20041;-84
2023/01/09 05:56:24;;;;;;;14.57;7.60;;;5.60;99.90;;;;;;5027074;28;20049;-84
2023/01/09 05:58:49;;;;;;;11.75;7.78;;;6.60;99.90;;;;;;4993692;28;20356;-84
2023/01/09 06:01:15;;;;;;;14.85;9.00;;;6.10;99.90;;;;;;5010413;28;20044;-84
2023/01/09 06:03:41;;;;;;;13.05;7.20;;;5.70;99.90;;;;;;5026509;28;20086;-84
2023/01/09 06:06:07;;;;;;;14.05;7.78;;;5.80;99.90;;;;;;4994395;28;20041;-85
2023/01/09 06:08:33;;;;;;;12.35;8.30;;;5.80;99.90;;;;;;5010611;28;20520;-82
2023/01/09 06:10:58;;;;;;;13.73;8.85;;;6.80;99.90;;;;;;4993978;28;20060;-84
2023/01/09 06:13:24;;;;;;;17.45;9.10;;;5.80;99.90;;;;;;5027396;28;20489;-84
2023/01/09 06:15:50;;;;;;;14.90;8.73;;;5.90;99.90;;;;;;4993247;28;20041;-84
2023/01/09 06:18:15;;;;;;;17.02;9.18;;;5.90;99.90;;;;;;5025691;28;20049;-84
2023/01/09 06:20:44;;;;;;;19.70;9.13;;;6.70;99.90;;;;;;5026432;28;20053;-85
2023/01/09 06:23:10;;;;;;;18.75;9.80;;;5.90;99.90;;;;;;5026362;28;20105;-85
2023/01/09 06:25:36;;;;;;;17.05;9.13;;;5.90;99.90;;;;;;5026615;28;20096;-84
2023/01/09 06:28:02;;;;;;;17.73;9.35;;;5.90;99.90;;;;;;5010762;28;20041;-85
2023/01/09 06:30:28;;;;;;;20.52;10.13;;;6.00;99.90;;;;;;5014091;28;20049;-85
2023/01/09 06:32:53;;;;;;;17.17;10.00;;;6.00;99.90;;;;;;5026941;28;20353;-85
2023/01/09 06:35:19;;;;;;;17.67;9.57;;;6.00;99.90;;;;;;4978110;28;20040;-87
2023/01/09 06:37:46;;;;;;;18.90;9.82;;;6.70;99.90;;;;;;4992881;28;20456;-85
2023/01/09 06:40:13;;;;;;;14.75;9.35;;;7.00;99.90;;;;;;5026521;28;20076;-84
2023/01/09 06:42:42;;;;;;;18.05;9.88;;;6.00;99.90;;;;;;5025614;28;20060;-85
2023/01/09 06:45:09;;;;;;;17.42;9.55;;;7.00;99.90;;;;;;5009212;28;20033;-85
2023/01/09 06:47:38;;;;;;;14.90;8.73;;;6.10;99.90;;;;;;4993667;28;20053;-85
2023/01/09 06:50:04;;;;;;;22.55;9.55;;;6.10;99.90;;;;;;4993594;28;20087;-86
2023/01/09 06:52:29;;;;;;;14.95;8.65;;;5.40;99.90;;;;;;5009462;28;20080;-86
2023/01/09 06:54:55;;;;;;;17.45;9.93;;;6.10;99.90;;;;;;4992845;28;20087;-86
2023/01/09 06:57:21;;;;;;;15.80;8.45;;;6.10;99.90;;;;;;5009483;28;20098;-86
2023/01/09 06:59:46;;;;;;;15.85;9.40;;;6.10;99.90;;;;;;5009425;28;20045;-86
2023/01/09 07:02:19;;;;;;;15.13;9.07;;;6.80;99.90;;;;;;4992794;28;20073;-86
2023/01/09 07:04:44;;;;;;;13.30;9.30;;;6.10;99.90;;;;;;5009898;28;20092;-86
2023/01/09 07:07:10;;;;;;;15.27;9.05;;;6.10;99.90;;;;;;5008904;28;20088;-85
2023/01/09 07:09:36;;;;;;;15.13;9.77;;;6.40;99.90;;;;;;5025828;28;20118;-86
2023/01/09 07:12:02;;;;;;;15.70;9.35;;;6.60;99.90;;;;;;4976298;28;20049;-84
2023/01/09 07:14:27;;;;;;;12.38;9.55;;;6.10;99.90;;;;;;5008974;28;20400;-84
2023/01/09 07:16:53;;;;;;;21.83;8.82;;;6.80;99.90;;;;;;5025635;28;20136;-86
2023/01/09 07:19:19;;;;;;;14.90;9.02;;;7.30;99.90;;;;;;5008549;28;20056;-85
2023/01/09 07:21:45;;;;;;;18.05;9.48;;;6.10;99.90;;;;;;5025892;28;20068;-86
2023/01/09 07:24:10;;;;;;;15.30;8.70;;;6.00;99.90;;;;;;4992174;28;20059;-85
2023/01/09 07:26:36;;;;;;;17.40;10.52;;;6.00;99.90;;;;;;4993634;28;20084;-86
2023/01/09 07:29:05;;;;;;;13.32;8.95;;;6.90;99.90;;;;;;5009365;28;20535;-86
2023/01/09 07:31:30;;;;;;;17.73;9.00;;;6.00;99.90;;;;;;4993324;28;20037;-86
2023/01/09 07:33:56;;;;;;;14.68;8.80;;;6.00;99.90;;;;;;5025191;28;20435;-86
2023/01/09 07:36:22;;;;;;;16.35;9.13;;;6.00;99.90;;;;;;4992521;28;20049;-86
2023/01/09 07:38:47;;;;;;;15.65;7.88;;;6.70;99.90;;;;;;4993034;28;20048;-85
2023/01/09 07:41:13;;;;;;;15.73;8.27;;;7.30;99.90;;;;;;5008627;28;20053;-86
2023/01/09 07:43:39;;;;;;;12.80;7.82;;;7.00;99.90;;;;;;4977316;28;20060;-86
2023/01/09 07:46:05;;;;;;;14.95;8.43;;;6.80;99.90;;;;;;4992038;28;20041;-85
2023/01/09 07:48:31;;;;;;;14.23;8.10;;;6.00;99.90;;;;;;5025404;28;20052;-86
2023/01/09 07:50:57;;;;;;;13.05;8.55;;;6.00;99.90;;;;;;5009491;28;20479;-86
2023/01/09 07:53:23;;;;;;;12.48;7.57;;;6.10;99.90;;;;;;5025578;28;20048;-86
2023/01/09 07:55:48;;;;;;;19.05;8.23;;;7.20;99.90;;;;;;5009083;28;20048;-86
2023/01/09 07:58:14;;;;;;;19.45;7.32;;;6.60;99.90;;;;;;4992780;28;20045;-86
2023/01/09 08:00:40;;;;;;;16.58;7.10;;;6.10;99.90;;;;;;5009034;28;20111;-86
2023/01/09 08:03:06;;;;;;;13.13;7.30;;;7.10;99.90;;;;;;5024801;28;20045;-85
2023/01/09 08:05:31;;;;;;;11.18;5.97;;;6.00;99.90;;;;;;5025061;28;20481;-86
2023/01/09 08:07:57;;;;;;;11.25;5.68;;;6.00;99.90;;;;;;5008488;28;20045;-86
2023/01/09 08:10:24;;;;;;;7.57;5.00;;;6.00;99.90;;;;;;5025247;28;20045;-85
2023/01/09 08:12:50;;;;;;;12.75;6.97;;;6.00;99.90;;;;;;5025066;28;20780;-84
2023/01/09 08:15:16;;;;;;;14.38;5.60;;;6.70;99.90;;;;;;5025933;28;20529;-84
2023/01/09 08:17:43;;;;;;;15.10;5.50;;;5.90;99.90;;;;;;5012992;28;20052;-83
2023/01/09 08:20:13;;;;;;;9.68;4.85;;;5.90;99.90;;;;;;5011618;28;20053;-84
2023/01/09 08:22:48;;;;;;;11.50;4.15;;;5.90;99.90;;;;;;5028818;28;20087;-84
2023/01/09 08:25:14;;;;;;;9.75;5.47;;;6.00;99.90;;;;;;5012212;28;20072;-84
2023/01/09 08:27:40;;;;;;;9.35;5.57;;;6.00;99.90;;;;;;5012190;28;20400;-84
2023/01/09 08:30:08;;;;;;;8.65;5.38;;;5.80;99.90;;;;;;5011692;28;20045;-84
2023/01/09 08:32:34;;;;;;;11.32;5.10;;;6.00;99.90;;;;;;5027655;28;20045;-84
2023/01/09 08:35:00;;;;;;;8.95;4.25;;;6.00;99.90;;;;;;5012471;28;20158;-84
2023/01/09 08:37:26;;;;;;;9.05;4.43;;;6.00;99.90;;;;;;4995279;28;20128;-84
2023/01/09 08:39:52;;;;;;;6.80;4.85;;;6.00;99.90;;;;;;5012298;28;20056;-84
2023/01/09 08:47:47;;;;;;;9.02;4.63;;;6.10;99.90;;;;;;5028681;28;20492;-84
2023/01/09 08:50:22;;;;;;;10.55;4.57;;;6.80;99.90;;;;;;4994967;28;20041;-84
2023/01/09 08:52:47;;;;;;;8.63;5.25;;;6.10;99.90;;;;;;5002849;28;20049;-84
2023/01/09 08:55:13;;;;;;;12.93;4.45;;;6.10;99.90;;;;;;5035320;28;20049;-83
2023/01/09 08:57:50;;;;;;;9.85;4.63;;;6.10;99.90;;;;;;5018265;28;20043;-83
2023/01/09 09:00:17;;;;;;;6.68;4.30;;;7.20;99.90;;;;;;5035620;28;20051;-84
2023/01/09 09:02:42;;;;;;;9.73;4.40;;;6.10;99.90;;;;;;5001364;28;20044;-84
2023/01/09 09:05:08;;;;;;;11.48;4.90;;;6.10;99.90;;;;;;5019063;28;20045;-84
2023/01/09 09:07:35;;;;;;;12.68;4.53;;;6.20;99.90;;;;;;5001400;28;20083;-84
2023/01/09 09:10:01;;;;;;;11.80;3.85;;;6.20;99.90;;;;;;5002662;28;20132;-83
2023/01/09 09:12:26;;;;;;;7.10;3.65;;;6.90;99.90;;;;;;5035236;28;20131;-84
2023/01/09 09:17:39;;;;;;;11.23;3.63;;;7.30;99.90;;;;;;5007481;28;20136;-84
2023/01/09 09:20:08;;;;;;;12.35;3.25;;;6.30;99.90;;;;;;5000767;28;20057;-84
2023/01/09 09:22:34;;;;;;;7.35;3.58;;;6.30;99.90;;;;;;5016196;28;20596;-84
2023/01/09 09:25:01;;;;;;;12.05;3.65;;;6.90;99.90;;;;;;5051179;28;20045;-84
2023/01/09 09:27:27;;;;;;;9.63;3.70;;;7.40;99.90;;;;;;5015518;28;20137;-84
2023/01/09 09:29:52;;;;;;;13.45;3.15;;;6.40;99.90;;;;;;5051119;28;20124;-84
2023/01/09 09:32:18;;;;;;;8.88;3.17;;;6.50;99.90;;;;;;5032765;28;20127;-84
2023/01/09 09:34:44;;;;;;;4.25;3.25;;;6.50;99.90;;;;;;5033092;28;20056;-83
2023/01/09 09:37:10;;;;;;;11.90;3.22;;;7.50;99.90;;;;;;5016241;28;20049;-83
2023/01/09 09:39:36;;;;;;;8.93;3.05;;;6.50;99.90;;;;;;5000338;28;20127;-84
2023/01/09 09:45:16;;;;;;;13.88;3.33;;;6.60;99.90;;;;;;5032701;28;20139;-83
2023/01/09 09:48:09;;;;;;;8.95;2.63;;;6.60;99.90;;;;;;5032512;28;20049;-84
2023/01/09 09:50:48;;;;;;;4.15;1.98;;;6.60;99.90;;;;;;5032702;28;20572;-84
2023/01/09 09:53:21;;;;;;;6.78;2.30;;;6.70;99.90;;;;;;5015756;28;20080;-84
2023/01/09 09:55:49;;;;;;;7.28;2.63;;;6.70;99.90;;;;;;5033524;28;20075;-83
2023/01/09 09:58:43;;;;;;;12.10;2.65;;;6.70;99.90;;;;;;5016343;28;20045;-85
2023/01/09 10:01:14;;;;;;;9.93;2.33;;;6.70;99.90;;;;;;5015731;28;20064;-85
2023/01/09 10:03:45;;;;;;;7.57;2.70;;;6.70;99.90;;;;;;5032862;28;20254;-83
2023/01/09 10:06:20;;;;;;;7.00;2.70;;;6.70;99.90;;;;;;5015642;28;20044;-84
2023/01/09 10:08:48;;;;;;;6.13;2.40;;;6.80;99.90;;;;;;5032766;28;20511;-84
2023/01/09 10:11:21;;;;;;;5.93;2.40;;;6.80;99.90;;;;;;5032009;28;20139;-84
2023/01/09 10:14:05;;;;;;;5.00;2.10;;;7.10;99.90;;;;;;5032079;28;20061;-83
2023/01/09 10:16:53;;;;;;;6.95;3.25;;;7.80;99.90;;;;;;5018152;28;20045;-83
2023/01/09 10:19:41;;;;;;;7.45;2.28;;;6.90;99.90;;;;;;5031654;28;20063;-83
2023/01/09 10:22:37;;;;;;;6.28;2.70;;;6.90;99.90;;;;;;5015081;28;20143;-83
2023/01/09 10:25:25;;;;;;;6.18;2.33;;;6.90;99.90;;;;;;5031814;28;20049;-83
2023/01/09 10:28:22;;;;;;;4.78;2.55;;;6.90;99.90;;;;;;5031808;28;20048;-83
2023/01/09 10:31:01;;;;;;;6.38;2.53;;;7.00;99.90;;;;;;5031678;28;20048;-83
2023/01/09 10:33:49;;;;;;;7.50;2.40;;;7.00;99.90;;;;;;5031969;28;20099;-83
2023/01/09 10:36:37;;;;;;;3.40;1.92;;;7.00;99.90;;;;;;5031640;28;20052;-83
2023/01/09 10:39:13;;;;;;;7.10;2.58;;;7.10;99.90;;;;;;5031856;28;20384;-82
2023/01/09 10:41:55;;;;;;;4.65;2.15;;;7.70;99.90;;;;;;5014952;28;20056;-83
2023/01/09 10:44:32;;;;;;;7.53;2.22;;;8.10;99.90;;;;;;5015372;28;20049;-83
2023/01/09 10:47:00;;;;;;;8.63;2.25;;;7.40;99.90;;;;;;5031861;28;20560;-83
2023/01/09 10:49:26;;;;;;;5.93;2.22;;;7.20;99.90;;;;;;5031133;28;20041;-83
2023/01/09 10:52:11;;;;;;;5.00;2.10;;;7.20;99.90;;;;;;4999321;28;20481;-83
2023/01/09 10:54:50;;;;;;;5.53;1.85;;;7.20;99.90;;;;;;5031239;28;20093;-84
2023/01/09 10:57:34;;;;;;;5.82;2.08;;;7.30;99.90;;;;;;5031499;28;20434;-85
2023/01/09 11:00:00;;;;;;;5.03;1.73;;;7.30;99.90;;;;;;5031897;28;20045;-85
2023/01/09 11:02:30;;;;;;;5.95;1.70;;;7.30;99.90;;;;;;5015049;28;20475;-85
2023/01/09 11:04:56;;;;;;;4.68;2.08;;;7.30;99.90;;;;;;5031453;28;20049;-85
2023/01/09 11:07:36;;;;;;;3.95;2.13;;;7.50;99.90;;;;;;5014811;28;20480;-85
2023/01/09 11:10:08;;;;;;;9.90;2.05;;;7.30;99.90;;;;;;5031440;28;20136;-86
2023/01/09 11:12:35;;;;;;;4.65;1.50;;;7.40;99.90;;;;;;5032018;28;20074;-86
2023/01/09 11:15:27;;;;;;;5.45;2.35;;;7.90;99.90;;;;;;5031054;28;20049;-85
2023/01/09 11:17:57;;;;;;;5.78;1.85;;;7.40;99.90;;;;;;5015569;28;20132;-86
2023/01/09 11:20:28;;;;;;;6.05;1.92;;;7.40;99.90;;;;;;5032275;28;20057;-85
2023/01/09 11:22:56;;;;;;;4.13;1.95;;;7.80;99.90;;;;;;5015320;28;20044;-84
2023/01/09 11:25:24;;;;;;;4.65;2.17;;;7.30;99.90;;;;;;5049404;28;20052;-83
2023/01/09 11:28:05;;;;;;;6.43;2.13;;;7.30;99.90;;;;;;5030863;28;20045;-83
2023/01/09 11:30:35;;;;;;;8.27;3.45;;;7.40;99.90;;;;;;5048872;28;20056;-83
2023/01/09 11:33:17;;;;;;;6.60;2.35;;;7.30;99.90;;;;;;5014391;28;20519;-83
2023/01/09 11:35:52;;;;;;;5.10;2.55;;;7.30;99.90;;;;;;5048797;28;20036;-83
2023/01/09 11:38:18;;;;;;;11.80;3.45;;;7.30;99.90;;;;;;5049145;28;20049;-83
2023/01/09 11:40:50;;;;;;;12.75;2.53;;;7.30;99.90;;;;;;5030735;28;20098;-83
2023/01/09 11:43:33;;;;;;;8.27;1.90;;;7.30;99.90;;;;;;5014683;28;20045;-83
2023/01/09 11:46:05;;;;;;;4.93;2.00;;;7.40;99.90;;;;;;5031092;28;20129;-83
2023/01/09 11:48:37;;;;;;;8.48;2.55;;;7.30;99.90;;;;;;5015149;28;20053;-83
2023/01/09 11:51:20;;;;;;;6.53;2.20;;;7.30;99.90;;;;;;5033724;28;20053;-83
2023/01/09 11:54:26;;;;;;;5.38;2.67;;;7.30;99.90;;;;;;5034678;28;20051;-84
2023/01/09 11:56:52;;;;;;;6.90;2.00;;;7.30;99.90;;;;;;5035118;28;20412;-83
2023/01/09 11:59:25;;;;;;;6.80;2.50;;;7.30;99.90;;;;;;5035282;28;20124;-84
2023/01/09 12:02:22;;;;;;;6.88;2.70;;;7.90;99.90;;;;;;5034405;28;20048;-83
2023/01/09 12:04:54;;;;;;;5.32;2.80;;;7.30;99.90;;;;;;5052973;28;20048;-84
2023/01/09 12:07:42;;;;;;;4.57;2.10;;;8.30;99.90;;;;;;5017805;28;20142;-83
2023/01/09 12:10:33;;;;;;;13.35;2.47;;;7.30;99.90;;;;;;5034751;28;20049;-83
2023/01/09 12:13:12;;;;;;;11.02;3.53;;;7.30;99.90;;;;;;5008362;28;20076;-83
2023/01/09 12:15:52;;;;;;;7.43;3.20;;;7.30;99.90;;;;;;5034103;28;20084;-83
2023/01/09 12:18:26;;;;;;;10.37;2.93;;;7.80;99.90;;;;;;5017970;28;20081;-83
2023/01/09 12:21:14;;;;;;;10.52;3.13;;;7.30;99.90;;;;;;5017667;28;20863;-83
2023/01/09 12:24:04;;;;;;;10.90;3.72;;;7.30;99.90;;;;;;5033871;28;20078;-83
2023/01/09 12:26:42;;;;;;;15.50;3.65;;;7.20;99.90;;;;;;5034099;28;20049;-83
2023/01/09 12:29:17;;;;;;;10.05;3.08;;;7.20;99.90;;;;;;5034496;28;20399;-84
2023/01/09 12:32:11;;;;;;;9.15;3.00;;;7.30;99.90;;;;;;5034109;28;20087;-83
2023/01/09 12:34:52;;;;;;;6.32;2.90;;;7.30;99.90;;;;;;5018019;28;20053;-83
2023/01/09 12:37:40;;;;;;;8.43;3.20;;;7.30;99.90;;;;;;5034397;28;20049;-85
2023/01/09 12:40:14;;;;;;;8.90;3.38;;;8.00;99.90;;;;;;5034359;28;20110;-84
2023/01/09 12:43:19;;;;;;;7.78;3.28;;;7.30;99.90;;;;;;5035187;28;20098;-84
2023/01/09 12:46:08;;;;;;;8.23;3.28;;;7.30;99.90;;;;;;5033708;28;20127;-83
2023/01/09 12:49:05;;;;;;;9.20;3.40;;;7.30;99.90;;;;;;5033768;28;20416;-84
2023/01/09 12:52:03;;;;;;;8.80;3.45;;;7.30;99.90;;;;;;5034272;28;20049;-83
2023/01/09 12:54:56;;;;;;;5.07;3.20;;;7.30;99.90;;;;;;5051015;28;20529;-84
2023/01/09 12:57:29;;;;;;;8.52;3.60;;;7.30;99.90;;;;;;5033661;28;20461;-83
2023/01/09 13:00:14;;;;;;;8.77;4.25;;;7.30;99.90;;;;;;5034008;28;20116;-84
2023/01/09 13:02:57;;;;;;;8.55;4.20;;;7.30;99.90;;;;;;5051100;28;20036;-84
2023/01/09 13:05:30;;;;;;;10.15;4.60;;;7.30;99.90;;;;;;5033613;28;20116;-83
2023/01/09 13:07:59;;;;;;;9.77;4.57;;;7.20;99.90;;;;;;5033389;28;20127;-83
2023/01/09 13:10:38;;;;;;;15.82;4.88;;;7.30;99.90;;;;;;5016404;28;20049;-83
2023/01/09 13:13:19;;;;;;;10.40;4.50;;;7.30;99.90;;;;;;5033772;28;20434;-83
2023/01/09 13:15:50;;;;;;;10.05;6.03;;;7.30;99.90;;;;;;5033674;28;20049;-83
2023/01/09 13:18:40;;;;;;;9.50;4.57;;;8.30;99.90;;;;;;5033382;28;20144;-83
2023/01/09 13:21:07;;;;;;;9.50;4.38;;;7.60;99.90;;;;;;5016126;28;20128;-83
2023/01/09 13:23:45;;;;;;;9.32;4.82;;;7.40;99.90;;;;;;5032956;28;20045;-82
2023/01/09 13:26:31;;;;;;;11.73;5.10;;;8.40;99.90;;;;;;5016639;28;20056;-83